Angora, Minnesota
Current Conditions -  °F | °C
As of 3:15 AM on Friday 31 Oct 2014 (Local Time) from KCQM Reporting Station
Overcast Overcast  
Wind Chill: -8°   Ceiling: 2900
Heat Index: -4°   Visibility: 10mi
Dew Point: -8°   Wind: 7mph
Humidity: 74%   Direction: 360°N
Pressure: 30.49"   Gusts: NA
Location:  47.77°N, 92.63°W
Report Text: KCQM 310815Z AUTO 36006KT 10SM OVC029 M04/M08 A3049 RMK AO2
Loading
Personal Weather Stations






























Interactive Weather Map New forecast layout! Learn more

10-Day Weather Forecast

Advertisements
Track Severe Weather on mobile